EST,Max TemperatureF,Mean TemperatureF,Min TemperatureF,Max Dew PointF,MeanDew PointF,Min DewpointF,Max Humidity, Mean Humidity, Min Humidity, Max Sea Level PressureIn, Mean Sea Level PressureIn, Min Sea Level PressureIn, Max VisibilityMiles, Mean VisibilityMiles, Min VisibilityMiles, Max Wind SpeedMPH, Mean Wind SpeedMPH, Max Gust SpeedMPH,PrecipitationIn, CloudCover, Events, WindDirDegrees
2012-11-1,66,48,30,41,27,5,100,48,9,30.04,29.98,29.93,10,10,8,14,4,21,0.00,0,,308
2012-11-2,77,54,32,54,44,34,100,66,32,30.05,30.00,29.94,10,10,10,13,3,20,0.00,0,,286
2012-11-3,82,62,41,57,53,48,100,59,34,30.13,30.05,30.01,10,10,2,10,1,,0.00,0,,296
2012-11-4,71,58,46,64,52,43,100,66,49,30.06,30.03,29.99,10,9,1,15,3,22,0.00,1,,314
2012-11-5,66,52,39,52,39,32,100,65,28,30.09,30.02,29.93,10,10,2,13,3,,0.00,1,,21
2012-11-6,51,48,46,52,49,48,100,100,100,29.98,29.94,29.89,10,9,3,7,2,,0.00,8,,44
2012-11-7,55,46,37,48,38,32,100,68,41,30.07,29.96,29.90,10,9,4,16,6,21,0.00,4,,312
2012-11-8,62,47,32,45,39,34,100,65,34,30.21,30.15,30.07,10,9,3,9,3,,0.00,0,,339
2012-11-9,68,48,28,46,37,32,100,55,26,30.32,30.24,30.20,10,9,1,4,0,,0.00,0,,335
2012-11-10,71,50,30,46,37,32,100,55,23,30.36,30.30,30.25,10,10,2,7,0,,0.00,0,,232
2012-11-11,71,52,33,59,52,48,100,68,43,30.39,30.32,30.27,10,10,1,14,3,21,0.00,2,,197
2012-11-12,71,60,48,64,60,48,100,91,64,30.29,30.24,30.18,10,9,2,16,8,18,0.00,4,,238
2012-11-13,57,45,33,48,30,27,100,60,31,30.34,30.29,30.24,10,9,2,10,5,17,0.00,1,,29
2012-11-14,51,44,37,45,40,30,100,82,62,30.34,30.29,30.25,10,10,9,9,3,18,0.00,6,,117
2012-11-15,51,46,41,46,45,43,100,97,76,30.30,30.26,30.22,10,9,2,12,3,,0.00,7,,101
2012-11-16,60,46,33,45,38,34,100,60,39,30.31,30.27,30.23,10,8,0,7,1,,0.00,1,,133
2012-11-17,59,44,30,39,34,32,100,67,36,30.41,30.34,30.30,10,10,5,10,2,21,0.00,0,,100
2012-11-18,64,47,30,48,38,30,100,73,48,30.38,30.32,30.27,10,10,10,8,1,,0.00,1,,104
2012-11-19,62,48,33,57,53,45,100,83,63,30.32,30.25,30.19,10,10,4,8,2,,0.00,4,,74
2012-11-20,68,54,39,54,46,43,100,61,43,30.20,30.13,30.07,10,10,2,8,1,,0.00,3,,336
2012-11-21,69,53,37,52,44,41,100,57,35,30.17,30.13,30.10,10,10,0,8,1,,0.00,2,,116
2012-11-22,69,51,33,48,41,37,100,61,31,30.26,30.20,30.16,10,9,1,6,0,,0.00,0,,323
2012-11-23,71,52,32,55,47,43,100,61,35,30.21,30.14,30.05,10,10,2,15,6,17,0.00,1,,353
2012-11-24,53,42,30,46,27,14,100,58,21,30.21,30.15,30.11,10,10,10,12,7,16,0.00,0,,6
2012-11-25,60,42,23,32,21,1,100,60,11,30.21,30.14,30.08,10,10,8,9,1,,0.00,0,,287
2012-11-26,66,45,24,36,28,21,100,60,19,30.23,30.17,30.13,10,10,10,7,2,,0.00,0,,225
2012-11-27,55,48,42,52,44,36,100,86,67,30.23,30.15,30.11,10,9,2,9,2,20,0.00,7,,284
2012-11-28,57,44,30,46,39,32,100,82,38,30.38,30.32,30.23,10,10,10,9,5,,0.00,3,,4
2012-11-29,60,43,26,41,36,32,100,55,39,30.43,30.37,30.31,10,10,10,8,1,,0.00,0,,165
2012-11-30,64,48,32,48,46,41,100,72,42,30.36,30.31,30.25,10,9,4,9,1,,0.00,5,,284